createdAt,value
2019-05-17T00:00:16.774Z,990.9
2019-05-17T00:03:16.898Z,991.0
2019-05-17T00:06:16.873Z,990.9
2019-05-17T00:09:17.549Z,990.9
2019-05-17T00:12:16.640Z,990.9
2019-05-17T00:15:17.018Z,990.8
2019-05-17T00:18:17.106Z,990.7
2019-05-17T00:21:16.995Z,990.7
2019-05-17T00:24:14.976Z,990.7
2019-05-17T00:27:17.207Z,990.7
2019-05-17T00:30:17.453Z,990.6
2019-05-17T00:33:16.958Z,990.5
2019-05-17T00:36:17.626Z,990.5
2019-05-17T00:39:16.699Z,990.5
2019-05-17T00:42:17.089Z,990.4
2019-05-17T00:45:17.313Z,990.4
2019-05-17T00:48:17.136Z,990.4
2019-05-17T00:51:16.715Z,990.4
2019-05-17T00:54:17.476Z,990.4
2019-05-17T00:57:16.608Z,990.4
2019-05-17T01:00:17.044Z,990.4
2019-05-17T01:03:16.264Z,990.4
2019-05-17T01:06:16.958Z,990.3
2019-05-17T01:09:17.046Z,990.3
2019-05-17T01:12:16.428Z,990.3
2019-05-17T01:15:16.751Z,990.3
2019-05-17T01:18:16.263Z,990.2
2019-05-17T01:21:16.859Z,990.1
2019-05-17T01:24:17.294Z,990.1
2019-05-17T01:27:17.242Z,990.1
2019-05-17T01:30:17.274Z,990.1
2019-05-17T01:33:17.142Z,990.1
2019-05-17T01:36:17.140Z,990.1
2019-05-17T01:39:18.726Z,990.1
2019-05-17T01:42:17.016Z,990.0
2019-05-17T01:45:16.694Z,990.0
2019-05-17T01:48:16.376Z,990.0
2019-05-17T01:51:16.983Z,990.0
2019-05-17T01:54:17.557Z,989.9
2019-05-17T01:57:16.890Z,989.9
2019-05-17T02:00:17.586Z,989.9
2019-05-17T02:03:17.190Z,989.8
2019-05-17T02:06:16.562Z,989.9
2019-05-17T02:09:32.314Z,989.8
2019-05-17T02:12:17.292Z,989.8
2019-05-17T02:15:16.434Z,989.8
2019-05-17T02:18:17.331Z,989.7
2019-05-17T02:21:16.857Z,989.7
2019-05-17T02:24:16.970Z,989.6
2019-05-17T02:27:15.736Z,989.6
2019-05-17T02:30:15.251Z,989.6
2019-05-17T02:33:23.629Z,989.6
2019-05-17T02:36:15.201Z,989.6
2019-05-17T02:39:15.588Z,989.6
2019-05-17T02:42:15.082Z,989.5
2019-05-17T02:45:15.447Z,989.5
2019-05-17T02:48:15.417Z,989.5
2019-05-17T02:51:15.433Z,989.5
2019-05-17T02:54:15.713Z,989.5
2019-05-17T02:57:15.262Z,989.5
2019-05-17T03:00:15.091Z,989.5
2019-05-17T03:03:15.476Z,989.5
2019-05-17T03:06:15.825Z,989.4
2019-05-17T03:09:15.224Z,989.4
2019-05-17T03:12:15.058Z,989.3
2019-05-17T03:15:15.327Z,989.4
2019-05-17T03:18:15.828Z,989.4
2019-05-17T03:21:14.994Z,989.4
2019-05-17T03:24:16.364Z,989.4
2019-05-17T03:27:15.090Z,989.4
2019-05-17T03:30:18.225Z,989.4
2019-05-17T03:33:16.719Z,989.3
2019-05-17T03:36:16.850Z,989.4
2019-05-17T03:39:15.230Z,989.4
2019-05-17T03:42:15.645Z,989.4
2019-05-17T03:45:15.488Z,989.3
2019-05-17T03:48:15.495Z,989.4
2019-05-17T03:51:15.422Z,989.3
2019-05-17T03:54:15.756Z,989.3
2019-05-17T03:57:15.873Z,989.3
2019-05-17T04:00:15.770Z,989.3
2019-05-17T04:03:15.327Z,989.3
2019-05-17T04:06:15.630Z,989.2
2019-05-17T04:09:15.231Z,989.2
2019-05-17T04:12:15.149Z,989.2
2019-05-17T04:15:23.666Z,989.2
2019-05-17T04:18:15.621Z,989.2
2019-05-17T04:21:14.895Z,989.2
2019-05-17T04:24:15.710Z,989.3
2019-05-17T04:27:15.290Z,989.3
2019-05-17T04:30:15.767Z,989.3
2019-05-17T04:33:15.928Z,989.2
2019-05-17T04:36:15.170Z,989.3
2019-05-17T04:39:15.647Z,989.2
2019-05-17T04:42:14.870Z,989.3
2019-05-17T04:45:15.650Z,989.2
2019-05-17T04:48:14.980Z,989.3
2019-05-17T04:51:15.597Z,989.3
2019-05-17T04:54:15.745Z,989.3
2019-05-17T04:57:15.875Z,989.3
2019-05-17T05:00:15.788Z,989.3
2019-05-17T05:03:15.778Z,989.3
2019-05-17T05:06:15.037Z,989.3
2019-05-17T05:09:15.273Z,989.3
2019-05-17T05:12:15.508Z,989.3
2019-05-17T05:15:14.977Z,989.3
2019-05-17T05:18:15.033Z,989.3
2019-05-17T05:21:15.049Z,989.2
2019-05-17T05:24:15.668Z,989.2
2019-05-17T05:27:15.835Z,989.2
2019-05-17T05:30:25.009Z,989.2
2019-05-17T05:33:15.504Z,989.3
2019-05-17T05:36:15.556Z,989.3
2019-05-17T05:39:15.173Z,989.3
2019-05-17T05:42:15.422Z,989.3
2019-05-17T05:45:15.677Z,989.3
2019-05-17T05:48:15.533Z,989.3
2019-05-17T05:51:14.976Z,989.3
2019-05-17T05:54:15.379Z,989.2
2019-05-17T05:57:15.276Z,989.3
2019-05-17T06:00:15.501Z,989.3
2019-05-17T06:03:15.354Z,989.2
2019-05-17T06:06:15.278Z,989.3
2019-05-17T06:09:15.569Z,989.3
2019-05-17T06:12:23.697Z,989.3
2019-05-17T06:15:14.957Z,989.3
2019-05-17T06:18:15.324Z,989.3
2019-05-17T06:21:15.228Z,989.3
2019-05-17T06:24:15.384Z,989.2
2019-05-17T06:27:15.220Z,989.2
2019-05-17T06:30:15.335Z,989.2
2019-05-17T06:33:27.019Z,989.3
2019-05-17T06:36:15.855Z,989.3
2019-05-17T06:39:15.186Z,989.3
2019-05-17T06:42:15.682Z,989.3
2019-05-17T06:45:14.958Z,989.2
2019-05-17T06:48:15.929Z,989.2
2019-05-17T06:51:15.571Z,989.2
2019-05-17T06:54:14.910Z,989.2
2019-05-17T06:57:15.150Z,989.2
2019-05-17T07:00:20.702Z,989.3
2019-05-17T07:03:15.732Z,989.3
2019-05-17T07:06:15.348Z,989.3
2019-05-17T07:09:15.478Z,989.2
2019-05-17T07:12:15.721Z,989.3
2019-05-17T07:15:15.328Z,989.3
2019-05-17T07:18:14.944Z,989.3
2019-05-17T07:21:15.643Z,989.2
2019-05-17T07:24:15.350Z,989.2
2019-05-17T07:27:15.552Z,989.2
2019-05-17T07:30:15.238Z,989.2
2019-05-17T07:33:15.016Z,989.2
2019-05-17T07:36:15.084Z,989.2
2019-05-17T07:39:15.075Z,989.1
2019-05-17T07:42:15.143Z,989.1
2019-05-17T07:45:15.615Z,989.0
2019-05-17T07:48:15.259Z,989.0
2019-05-17T07:51:15.086Z,989.0
2019-05-17T07:54:15.625Z,989.0
2019-05-17T07:57:15.883Z,988.9
2019-05-17T08:00:15.550Z,988.9
2019-05-17T08:03:15.114Z,988.9
2019-05-17T08:06:15.405Z,988.9
2019-05-17T08:09:15.152Z,988.8
2019-05-17T08:12:15.761Z,988.8
2019-05-17T08:15:15.144Z,988.9
2019-05-17T08:18:15.131Z,988.8
2019-05-17T08:21:15.492Z,988.8
2019-05-17T08:24:15.073Z,988.8
2019-05-17T08:27:15.944Z,988.8
2019-05-17T08:30:15.816Z,988.8
2019-05-17T08:33:15.085Z,988.7
2019-05-17T08:36:15.318Z,988.7
2019-05-17T08:39:15.562Z,988.6
2019-05-17T08:42:15.701Z,988.6
2019-05-17T08:45:15.863Z,988.6
2019-05-17T08:48:15.271Z,988.5
2019-05-17T08:51:15.326Z,988.4
2019-05-17T08:54:15.116Z,988.4
2019-05-17T08:57:15.862Z,988.4
2019-05-17T09:00:15.143Z,988.4
2019-05-17T09:03:15.261Z,988.4
2019-05-17T09:06:15.200Z,988.3
2019-05-17T09:09:15.509Z,988.3
2019-05-17T09:12:15.008Z,988.3
2019-05-17T09:15:15.623Z,988.3
2019-05-17T09:18:15.325Z,988.3
2019-05-17T09:21:15.112Z,988.2
2019-05-17T09:24:15.821Z,988.2
2019-05-17T09:27:15.594Z,988.2
2019-05-17T09:30:15.579Z,988.1
2019-05-17T09:33:14.971Z,988.2
2019-05-17T09:36:15.811Z,988.1
2019-05-17T09:39:14.925Z,988.1
2019-05-17T09:42:15.369Z,988.1
2019-05-17T09:45:14.946Z,988.1
2019-05-17T09:48:15.079Z,988.1
2019-05-17T09:51:15.396Z,988.0
2019-05-17T09:54:14.953Z,988.0
2019-05-17T09:57:15.875Z,988.0
2019-05-17T10:00:15.337Z,988.0
2019-05-17T10:03:15.308Z,988.0
2019-05-17T10:06:15.269Z,988.0
2019-05-17T10:09:15.892Z,987.9
2019-05-17T10:12:15.828Z,987.8
2019-05-17T10:15:15.714Z,987.8
2019-05-17T10:18:15.499Z,987.8
2019-05-17T10:21:15.497Z,987.8
2019-05-17T10:24:15.917Z,987.7
2019-05-17T10:27:15.853Z,987.8
2019-05-17T10:30:14.950Z,987.7
2019-05-17T10:33:15.889Z,987.7
2019-05-17T10:36:15.228Z,987.7
2019-05-17T10:39:15.345Z,987.6
2019-05-17T10:42:15.471Z,987.6
2019-05-17T10:45:20.398Z,987.6
2019-05-17T10:48:15.566Z,987.6
2019-05-17T10:51:15.845Z,987.6
2019-05-17T10:54:15.364Z,987.6
2019-05-17T10:57:15.808Z,987.6
2019-05-17T11:00:15.965Z,987.5
2019-05-17T11:03:14.968Z,987.6
2019-05-17T11:06:15.374Z,987.5
2019-05-17T11:09:15.782Z,987.5
2019-05-17T11:12:15.027Z,987.5
2019-05-17T11:15:15.822Z,987.5
2019-05-17T11:18:15.220Z,987.5
2019-05-17T11:21:15.082Z,987.4
2019-05-17T11:24:14.944Z,987.5
2019-05-17T11:27:15.735Z,987.5
2019-05-17T11:30:15.795Z,987.5
2019-05-17T11:33:15.083Z,987.5
2019-05-17T11:36:14.986Z,987.5
2019-05-17T11:39:14.933Z,987.5
2019-05-17T11:42:15.782Z,987.5
2019-05-17T11:45:27.102Z,987.4
2019-05-17T11:48:14.901Z,987.4
2019-05-17T11:51:15.389Z,987.4
2019-05-17T11:54:15.583Z,987.4
2019-05-17T11:57:15.426Z,987.3
2019-05-17T12:00:15.269Z,987.3
2019-05-17T12:03:15.631Z,987.3
2019-05-17T12:06:15.743Z,987.3
2019-05-17T12:09:15.076Z,987.2
2019-05-17T12:12:15.818Z,987.1
2019-05-17T12:15:15.151Z,987.1
2019-05-17T12:18:15.262Z,987.2
2019-05-17T12:21:15.210Z,987.2
2019-05-17T12:24:15.199Z,987.2
2019-05-17T12:27:15.220Z,987.2
2019-05-17T12:30:15.202Z,987.3
2019-05-17T12:33:15.051Z,987.3
2019-05-17T12:36:15.088Z,987.3
2019-05-17T12:39:20.690Z,987.2
2019-05-17T12:42:15.178Z,987.2
2019-05-17T12:45:15.098Z,987.3
2019-05-17T12:48:15.830Z,987.3
2019-05-17T12:51:15.104Z,987.1
2019-05-17T12:54:15.374Z,987.1
2019-05-17T12:57:15.083Z,987.1
2019-05-17T13:00:15.879Z,987.1
2019-05-17T13:03:14.970Z,987.0
2019-05-17T13:06:15.876Z,987.0
2019-05-17T13:09:15.121Z,987.0
2019-05-17T13:12:15.874Z,987.0
2019-05-17T13:15:15.855Z,987.0
2019-05-17T13:18:15.802Z,987.0
2019-05-17T13:21:15.053Z,987.0
2019-05-17T13:24:15.890Z,987.0
2019-05-17T13:27:15.814Z,987.0
2019-05-17T13:30:15.340Z,987.0
2019-05-17T13:33:15.217Z,986.9
2019-05-17T13:36:15.197Z,987.0
2019-05-17T13:39:15.877Z,986.9
2019-05-17T13:42:15.923Z,986.9
2019-05-17T13:45:14.932Z,986.9
2019-05-17T13:48:15.819Z,986.9
2019-05-17T13:51:15.793Z,986.8
2019-05-17T13:54:15.679Z,986.9
2019-05-17T13:57:15.418Z,986.8
2019-05-17T14:00:15.200Z,986.8
2019-05-17T14:03:15.854Z,986.8
2019-05-17T14:06:15.204Z,986.8
2019-05-17T14:09:14.965Z,986.8
2019-05-17T14:12:15.770Z,986.8
2019-05-17T14:15:14.952Z,986.8
2019-05-17T14:18:15.826Z,986.7
2019-05-17T14:21:15.631Z,986.7
2019-05-17T14:24:15.396Z,986.6
2019-05-17T14:27:15.170Z,986.6
2019-05-17T14:30:15.001Z,986.7
2019-05-17T14:33:15.747Z,986.6
2019-05-17T14:36:15.805Z,986.6
2019-05-17T14:39:15.658Z,986.6
2019-05-17T14:42:15.477Z,986.5
2019-05-17T14:45:15.295Z,986.5
2019-05-17T14:48:15.299Z,986.5
2019-05-17T14:51:15.086Z,986.5
2019-05-17T14:54:15.084Z,986.5
2019-05-17T14:57:15.612Z,986.5
2019-05-17T15:00:15.456Z,986.5
2019-05-17T15:03:15.400Z,986.5
2019-05-17T15:06:15.927Z,986.4
2019-05-17T15:09:15.634Z,986.4
2019-05-17T15:12:27.253Z,986.4
2019-05-17T15:15:25.804Z,986.3
2019-05-17T15:18:15.787Z,986.4
2019-05-17T15:21:15.463Z,986.3
2019-05-17T15:24:15.103Z,986.3
2019-05-17T15:27:15.779Z,986.3
2019-05-17T15:30:15.448Z,986.2
2019-05-17T15:33:15.148Z,986.3
2019-05-17T15:36:15.784Z,986.2
2019-05-17T15:39:15.626Z,986.3
2019-05-17T15:45:15.726Z,986.3
